Time;durP1;ratioP1;P1;durP2;ratioP2;P2;SDS_P1;SDS_P2;PMS_P1;PMS_P2;Temp;Humidity;BMP_temperature;BMP_pressure;BME280_temperature;BME280_humidity;BME280_pressure;Samples;Min_cycle;Max_cycle;Signal;HPM_P1;HPM_P2
2022/08/16 00:01:50;;;;;;;3.08;2.33;;;20.90;99.90;;;;;;5218264;28;20347;-62
2022/08/16 00:04:21;;;;;;;4.80;2.30;;;21.00;99.90;;;;;;5190123;28;20029;-61
2022/08/16 00:06:57;;;;;;;2.10;1.90;;;21.10;99.90;;;;;;5183550;28;20035;-61
2022/08/16 00:09:28;;;;;;;2.92;2.00;;;21.90;99.90;;;;;;5184442;28;20035;-61
2022/08/16 00:11:59;;;;;;;1.60;1.50;;;22.60;99.90;;;;;;5200080;28;20058;-61
2022/08/16 00:14:37;;;;;;;1.92;1.80;;;22.90;99.90;;;;;;5218432;28;20212;-61
2022/08/16 00:17:08;;;;;;;2.88;1.60;;;23.20;99.90;;;;;;5202560;28;20195;-60
2022/08/16 00:19:40;;;;;;;2.15;1.73;;;23.30;99.90;;;;;;5199538;28;20059;-60
2022/08/16 00:22:14;;;;;;;1.58;1.45;;;23.40;99.90;;;;;;5216033;28;20033;-60
2022/08/16 00:24:47;;;;;;;2.78;1.98;;;23.40;99.90;;;;;;5201176;28;20024;-61
2022/08/16 00:27:21;;;;;;;2.10;1.90;;;23.40;99.90;;;;;;5218187;28;20027;-61
2022/08/16 00:29:54;;;;;;;1.77;1.65;;;23.30;99.90;;;;;;5217834;28;20025;-60
2022/08/16 00:32:30;;;;;;;1.90;1.80;;;23.20;99.90;;;;;;5183282;28;20043;-61
2022/08/16 00:35:01;;;;;;;2.08;1.70;;;23.30;99.90;;;;;;5195020;28;20056;-61
2022/08/16 00:37:35;;;;;;;2.35;1.88;;;23.30;99.90;;;;;;5199805;28;20039;-59
2022/08/16 00:40:07;;;;;;;3.47;2.65;;;23.20;99.90;;;;;;5230270;28;20356;-61
2022/08/16 00:42:39;;;;;;;2.30;1.75;;;23.00;99.90;;;;;;5183732;28;20037;-60
2022/08/16 00:45:40;;;;;;;1.85;1.70;;;22.90;99.90;;;;;;5217772;28;20033;-62
2022/08/16 00:48:14;;;;;;;2.10;1.50;;;22.70;99.90;;;;;;5218536;28;20037;-61
2022/08/16 00:50:46;;;;;;;1.85;1.70;;;22.60;99.90;;;;;;5199655;28;20023;-60
2022/08/16 00:53:22;;;;;;;2.63;1.60;;;22.60;99.90;;;;;;5216869;28;20142;-60
2022/08/16 00:55:56;;;;;;;1.90;1.60;;;22.70;99.90;;;;;;5216860;28;20032;-61
2022/08/16 00:58:33;;;;;;;2.10;1.90;;;22.60;99.90;;;;;;5212378;28;20051;-60
2022/08/16 01:01:22;;;;;;;2.03;1.77;;;22.70;99.90;;;;;;5208519;28;20033;-61
2022/08/16 01:03:56;;;;;;;2.33;2.10;;;22.70;99.90;;;;;;5197558;28;20025;-61
2022/08/16 01:06:35;;;;;;;4.30;2.00;;;22.80;99.90;;;;;;5194925;28;20374;-61
2022/08/16 01:09:12;;;;;;;1.77;1.55;;;23.00;99.90;;;;;;5208434;28;20024;-60
2022/08/16 01:11:46;;;;;;;2.17;1.60;;;23.00;99.90;;;;;;5216330;28;20031;-61
2022/08/16 01:14:23;;;;;;;2.22;2.05;;;23.00;99.90;;;;;;5214693;28;20036;-62
2022/08/16 01:16:56;;;;;;;2.35;1.90;;;22.80;99.90;;;;;;5223325;28;20036;-62
2022/08/16 01:19:46;;;;;;;2.00;1.60;;;22.60;99.90;;;;;;5189054;28;20037;-59
2022/08/16 01:22:31;;;;;;;2.42;1.55;;;22.50;99.90;;;;;;5217888;28;20345;-60
2022/08/16 01:25:08;;;;;;;1.90;1.50;;;22.40;99.90;;;;;;5205864;28;20032;-61
2022/08/16 01:28:04;;;;;;;1.58;1.48;;;22.20;99.90;;;;;;5217368;28;20027;-60
2022/08/16 01:30:42;;;;;;;1.70;1.33;;;22.10;99.90;;;;;;5217192;28;20294;-61
2022/08/16 01:33:13;;;;;;;1.77;1.65;;;21.90;99.90;;;;;;5216544;28;20027;-60
2022/08/16 01:35:52;;;;;;;2.63;1.80;;;21.80;99.90;;;;;;5217389;28;20045;-60
2022/08/16 01:38:30;;;;;;;2.80;1.90;;;21.80;99.90;;;;;;5222705;28;20020;-60
2022/08/16 01:41:13;;;;;;;1.85;1.63;;;21.70;99.90;;;;;;5218202;28;20214;-60
2022/08/16 01:43:45;;;;;;;1.52;1.35;;;21.70;99.90;;;;;;5220261;28;20027;-61
2022/08/16 01:46:22;;;;;;;1.83;1.52;;;21.70;99.90;;;;;;5217489;28;20249;-60
2022/08/16 01:48:57;;;;;;;1.42;1.33;;;21.60;99.90;;;;;;5216690;28;20033;-62
2022/08/16 01:51:29;;;;;;;2.53;1.77;;;21.60;99.90;;;;;;5197584;28;20027;-61
2022/08/16 01:54:01;;;;;;;1.42;1.33;;;21.60;99.90;;;;;;5205924;28;20119;-60
2022/08/16 01:56:33;;;;;;;2.05;1.35;;;21.60;99.90;;;;;;5217439;28;20024;-62
2022/08/16 01:59:15;;;;;;;1.52;1.40;;;21.50;99.90;;;;;;5217814;28;20171;-59
2022/08/16 02:01:53;;;;;;;1.60;1.50;;;21.50;99.90;;;;;;5216341;28;20056;-60
2022/08/16 02:04:29;;;;;;;1.42;1.23;;;21.50;99.90;;;;;;5189044;28;20032;-61
2022/08/16 02:07:07;;;;;;;1.88;1.77;;;21.50;99.90;;;;;;5216124;28;20028;-61
2022/08/16 02:09:39;;;;;;;1.95;1.67;;;21.40;99.90;;;;;;5216722;28;20031;-60
2022/08/16 02:12:11;;;;;;;2.67;1.38;;;21.40;99.90;;;;;;5181944;28;20258;-61
2022/08/16 02:14:42;;;;;;;1.77;1.67;;;21.40;99.90;;;;;;5218133;28;20033;-59
2022/08/16 02:17:16;;;;;;;2.80;1.50;;;21.40;99.90;;;;;;5198766;28;20206;-60
2022/08/16 02:19:52;;;;;;;2.35;1.77;;;21.40;99.90;;;;;;5216597;28;20024;-60
2022/08/16 02:22:29;;;;;;;1.35;1.25;;;21.40;99.90;;;;;;5197814;28;20273;-59
2022/08/16 02:25:05;;;;;;;2.08;1.70;;;21.40;99.90;;;;;;5216286;28;20031;-60
2022/08/16 02:27:42;;;;;;;1.48;1.17;;;21.30;99.90;;;;;;5191397;28;20051;-60
2022/08/16 02:30:17;;;;;;;1.45;1.35;;;21.30;99.90;;;;;;5216547;28;20314;-60
2022/08/16 02:32:49;;;;;;;1.70;1.50;;;21.20;99.90;;;;;;5197238;28;20330;-61
2022/08/16 02:35:24;;;;;;;1.67;1.48;;;21.20;99.90;;;;;;5215325;28;20317;-61
2022/08/16 02:37:59;;;;;;;2.40;1.70;;;21.20;99.90;;;;;;5215534;28;20027;-61
2022/08/16 02:40:32;;;;;;;2.83;1.88;;;21.20;99.90;;;;;;5215308;28;20326;-60
2022/08/16 02:43:04;;;;;;;1.60;1.50;;;21.10;99.90;;;;;;5216035;28;20287;-60
2022/08/16 02:45:36;;;;;;;1.73;1.42;;;21.00;99.90;;;;;;5215948;28;20025;-60
2022/08/16 02:48:10;;;;;;;1.40;1.23;;;21.00;99.90;;;;;;5218526;28;20165;-61
2022/08/16 02:50:41;;;;;;;1.60;1.50;;;21.00;99.90;;;;;;5215698;28;20187;-60
2022/08/16 02:53:13;;;;;;;1.40;1.30;;;20.90;99.90;;;;;;5195474;28;20325;-60
2022/08/16 02:55:44;;;;;;;2.67;1.80;;;20.80;99.90;;;;;;5215323;28;20021;-61
2022/08/16 02:58:16;;;;;;;1.65;1.55;;;20.90;99.90;;;;;;5215683;28;20059;-61
2022/08/16 03:00:49;;;;;;;1.77;1.38;;;20.80;99.90;;;;;;5197229;28;20119;-61
2022/08/16 03:03:22;;;;;;;1.80;1.70;;;20.80;99.90;;;;;;5215826;28;20165;-60
2022/08/16 03:05:56;;;;;;;2.20;1.70;;;20.80;99.90;;;;;;5187548;28;20120;-61
2022/08/16 03:08:27;;;;;;;1.93;1.47;;;20.80;99.90;;;;;;5215565;28;20029;-59
2022/08/16 03:10:58;;;;;;;1.58;1.33;;;20.80;99.90;;;;;;5215358;28;20027;-59
2022/08/16 03:13:31;;;;;;;1.50;1.40;;;20.80;99.90;;;;;;5177164;28;20051;-60
2022/08/16 03:16:03;;;;;;;1.80;1.70;;;20.70;99.90;;;;;;5192980;28;20043;-60
2022/08/16 03:18:34;;;;;;;1.98;1.52;;;20.70;99.90;;;;;;5214011;28;20042;-60
2022/08/16 03:21:11;;;;;;;1.83;1.45;;;20.70;99.90;;;;;;5204109;28;20250;-59
2022/08/16 03:23:50;;;;;;;1.77;1.40;;;20.70;99.90;;;;;;5214157;28;20340;-60
2022/08/16 03:26:26;;;;;;;1.73;1.48;;;20.70;99.90;;;;;;5194952;28;20018;-59
2022/08/16 03:28:57;;;;;;;1.50;1.40;;;20.70;99.90;;;;;;5194796;28;20029;-60
2022/08/16 03:31:29;;;;;;;3.35;1.52;;;20.70;99.90;;;;;;5220725;28;20032;-59
2022/08/16 03:34:05;;;;;;;3.53;1.55;;;20.70;99.90;;;;;;5176669;28;20025;-60
2022/08/16 03:36:44;;;;;;;1.63;1.23;;;20.80;99.90;;;;;;5212799;28;20331;-61
2022/08/16 03:39:18;;;;;;;0.90;0.90;;;20.80;99.90;;;;;;5214806;28;20035;-59
2022/08/16 03:41:55;;;;;;;1.70;1.55;;;20.70;99.90;;;;;;5215573;28;20295;-59
2022/08/16 03:44:31;;;;;;;1.38;1.05;;;20.70;99.90;;;;;;5213224;28;20035;-60
2022/08/16 03:47:02;;;;;;;1.55;1.08;;;20.80;99.90;;;;;;5216624;28;20395;-60
2022/08/16 03:49:35;;;;;;;1.83;1.35;;;20.80;99.90;;;;;;5212356;28;20341;-61
2022/08/16 03:52:12;;;;;;;1.17;1.08;;;20.80;99.90;;;;;;5211920;28;20168;-60
2022/08/16 03:54:47;;;;;;;1.30;1.20;;;20.90;99.90;;;;;;5214496;28;20266;-61
2022/08/16 03:57:18;;;;;;;2.15;1.15;;;20.90;99.90;;;;;;5182705;28;20041;-61
2022/08/16 03:59:51;;;;;;;1.80;1.15;;;21.00;99.90;;;;;;5196327;28;20033;-60
2022/08/16 04:02:22;;;;;;;1.05;0.95;;;21.10;99.90;;;;;;5210768;28;20025;-61
2022/08/16 04:04:54;;;;;;;1.15;1.08;;;21.10;99.90;;;;;;5185676;28;20486;-61
2022/08/16 04:07:27;;;;;;;8.63;1.50;;;21.20;99.90;;;;;;5192657;28;20029;-60
2022/08/16 04:09:58;;;;;;;0.98;0.93;;;21.20;99.90;;;;;;5235093;28;20027;-61
2022/08/16 04:12:29;;;;;;;2.30;1.10;;;21.20;99.90;;;;;;5231248;28;20336;-60
2022/08/16 04:15:03;;;;;;;1.08;1.00;;;21.20;99.90;;;;;;5179696;28;20051;-61
2022/08/16 04:17:40;;;;;;;1.60;1.00;;;21.20;99.90;;;;;;5212958;28;20060;-60
2022/08/16 04:20:18;;;;;;;2.28;0.82;;;21.30;99.90;;;;;;5213205;28;20031;-60
2022/08/16 04:22:49;;;;;;;1.10;1.10;;;21.30;99.90;;;;;;5187126;28;20033;-60
2022/08/16 04:25:21;;;;;;;0.85;0.85;;;21.30;99.90;;;;;;5215205;28;20194;-61
2022/08/16 04:27:55;;;;;;;1.10;1.00;;;21.40;99.90;;;;;;5216958;28;20341;-61
2022/08/16 04:30:31;;;;;;;1.30;1.20;;;21.40;99.90;;;;;;5218064;28;20013;-60
2022/08/16 04:33:05;;;;;;;3.50;0.95;;;21.40;99.90;;;;;;5200122;28;20059;-61
2022/08/16 04:35:36;;;;;;;1.23;1.13;;;21.50;99.90;;;;;;5218236;28;20029;-61
2022/08/16 04:38:12;;;;;;;1.75;1.10;;;21.50;99.90;;;;;;5200639;28;20599;-61
2022/08/16 04:40:43;;;;;;;3.17;1.10;;;21.60;99.90;;;;;;5218663;28;20029;-60
2022/08/16 04:43:14;;;;;;;1.10;0.90;;;21.60;99.90;;;;;;5196096;28;20044;-61
2022/08/16 04:45:48;;;;;;;1.40;1.30;;;21.60;99.90;;;;;;5179359;28;20116;-61
2022/08/16 04:48:20;;;;;;;1.20;1.10;;;21.60;99.90;;;;;;5191178;28;20314;-59
2022/08/16 04:50:55;;;;;;;1.27;1.17;;;21.70;99.90;;;;;;5199726;28;20202;-61
2022/08/16 04:53:29;;;;;;;1.50;1.40;;;21.70;99.90;;;;;;5217714;28;20027;-60
2022/08/16 04:56:01;;;;;;;4.68;1.10;;;21.80;99.90;;;;;;5200299;28;20155;-60
2022/08/16 04:58:33;;;;;;;1.10;1.00;;;21.80;99.90;;;;;;5220663;28;20030;-60
2022/08/16 05:01:04;;;;;;;1.42;1.10;;;21.90;99.90;;;;;;5200241;28;20207;-60
2022/08/16 05:03:38;;;;;;;1.25;1.10;;;21.90;99.90;;;;;;5183123;28;20059;-60
2022/08/16 05:06:09;;;;;;;2.78;1.00;;;22.00;99.90;;;;;;5189637;28;20055;-60
2022/08/16 05:08:43;;;;;;;1.90;1.27;;;22.00;99.90;;;;;;5200349;28;20025;-60
2022/08/16 05:11:15;;;;;;;4.73;1.27;;;22.00;99.90;;;;;;5217455;28;20047;-60
2022/08/16 05:13:47;;;;;;;1.67;1.00;;;22.10;99.90;;;;;;5200349;28;20346;-59
2022/08/16 05:16:26;;;;;;;1.60;1.20;;;22.10;99.90;;;;;;5218112;28;20017;-60
2022/08/16 05:19:01;;;;;;;1.30;1.20;;;22.10;99.90;;;;;;5218816;28;20032;-61
2022/08/16 05:21:37;;;;;;;1.77;1.20;;;22.10;99.90;;;;;;5217875;28;20025;-60
2022/08/16 05:24:11;;;;;;;1.23;1.13;;;22.10;99.90;;;;;;5207812;28;20341;-59
2022/08/16 05:26:42;;;;;;;1.50;1.35;;;22.00;99.90;;;;;;5218445;28;20025;-61
2022/08/16 05:29:17;;;;;;;3.47;1.58;;;22.10;99.90;;;;;;5209240;28;20035;-60
2022/08/16 05:31:51;;;;;;;3.20;1.55;;;22.00;99.90;;;;;;5220647;28;20032;-60
2022/08/16 05:34:26;;;;;;;1.25;1.00;;;22.00;99.90;;;;;;5235860;28;20320;-61
2022/08/16 05:37:03;;;;;;;1.33;1.20;;;22.00;99.90;;;;;;5184026;28;20035;-61
2022/08/16 05:39:36;;;;;;;2.15;1.30;;;22.10;99.90;;;;;;5232844;28;20042;-62
2022/08/16 05:42:08;;;;;;;1.70;1.20;;;22.30;99.90;;;;;;5237461;28;20033;-61
2022/08/16 05:44:48;;;;;;;1.27;1.10;;;22.40;99.90;;;;;;5218538;28;20203;-61
2022/08/16 05:47:22;;;;;;;1.60;1.17;;;22.60;99.90;;;;;;5219287;28;20027;-61
2022/08/16 05:49:54;;;;;;;1.55;1.45;;;22.80;99.90;;;;;;5198787;28;20238;-61
2022/08/16 05:52:30;;;;;;;1.58;1.23;;;22.80;99.90;;;;;;5216169;28;20333;-61
2022/08/16 05:55:04;;;;;;;1.67;1.00;;;23.10;99.90;;;;;;5217411;28;20025;-60
2022/08/16 05:57:35;;;;;;;1.17;1.02;;;23.10;99.90;;;;;;5199597;28;20261;-61
2022/08/16 06:00:09;;;;;;;1.10;1.00;;;23.20;99.90;;;;;;5233408;28;20652;-61
2022/08/16 06:02:41;;;;;;;1.40;1.30;;;23.20;99.90;;;;;;5198401;28;20359;-60
2022/08/16 06:05:16;;;;;;;1.05;0.93;;;23.20;99.90;;;;;;5209484;28;20049;-60
2022/08/16 06:07:50;;;;;;;1.33;0.98;;;23.40;99.90;;;;;;5199327;28;20041;-60
2022/08/16 06:10:21;;;;;;;1.70;1.40;;;23.60;99.90;;;;;;5199687;28;20050;-60
2022/08/16 06:12:59;;;;;;;1.55;1.13;;;23.60;99.90;;;;;;5222157;28;20363;-59
2022/08/16 06:15:30;;;;;;;3.85;1.27;;;23.60;99.90;;;;;;5203423;28;20028;-61
2022/08/16 06:18:05;;;;;;;1.98;1.10;;;23.60;99.90;;;;;;5215963;28;20056;-61
2022/08/16 06:20:36;;;;;;;1.40;1.30;;;23.50;99.90;;;;;;5182880;28;20032;-61
2022/08/16 06:23:15;;;;;;;1.30;1.20;;;23.50;99.90;;;;;;5199788;28;20040;-60
2022/08/16 06:25:46;;;;;;;2.63;1.45;;;23.50;99.90;;;;;;5217709;28;20214;-61
2022/08/16 06:28:22;;;;;;;1.02;0.95;;;23.70;99.90;;;;;;5198823;28;20040;-60
2022/08/16 06:30:53;;;;;;;2.10;1.10;;;23.80;99.90;;;;;;5181901;28;20029;-60
2022/08/16 06:33:25;;;;;;;1.40;1.20;;;23.70;99.90;;;;;;5217238;28;20201;-60
2022/08/16 06:35:56;;;;;;;3.38;1.17;;;23.50;99.90;;;;;;5199107;28;20036;-61
2022/08/16 06:38:28;;;;;;;0.95;0.88;;;23.70;99.90;;;;;;5199080;28;20036;-60
2022/08/16 06:41:05;;;;;;;1.10;1.10;;;23.90;99.90;;;;;;5200322;28;20203;-59
2022/08/16 06:43:37;;;;;;;1.25;1.15;;;24.00;99.90;;;;;;5219883;28;20020;-60
2022/08/16 06:46:22;;;;;;;1.83;1.38;;;24.30;99.90;;;;;;5201837;28;20051;-60
2022/08/16 06:48:56;;;;;;;0.90;0.90;;;24.30;99.90;;;;;;5218426;28;20027;-61
2022/08/16 06:51:30;;;;;;;2.35;1.75;;;24.30;99.90;;;;;;5216295;28;20025;-60
2022/08/16 06:54:02;;;;;;;2.83;1.00;;;24.50;99.90;;;;;;5199278;28;20059;-61
2022/08/16 06:56:34;;;;;;;1.00;0.98;;;24.80;99.90;;;;;;5217343;28;20021;-61
2022/08/16 06:59:05;;;;;;;1.30;1.15;;;25.10;99.90;;;;;;5217702;28;20029;-61
2022/08/16 07:01:40;;;;;;;1.20;0.93;;;25.10;99.90;;;;;;5199040;28;20324;-61
2022/08/16 07:04:16;;;;;;;1.50;1.13;;;25.10;99.90;;;;;;5217543;28;20031;-61
2022/08/16 07:06:50;;;;;;;1.48;1.00;;;24.80;99.90;;;;;;5204954;28;20055;-61
2022/08/16 07:09:21;;;;;;;1.77;1.10;;;24.60;99.90;;;;;;5219375;28;20032;-60
2022/08/16 07:11:52;;;;;;;1.02;0.98;;;24.90;99.90;;;;;;5216630;28;20190;-61
2022/08/16 07:14:23;;;;;;;2.03;1.50;;;25.30;99.90;;;;;;5198238;28;20043;-61
2022/08/16 07:16:57;;;;;;;1.15;1.00;;;25.40;99.90;;;;;;5216650;28;20017;-61
2022/08/16 07:19:32;;;;;;;1.20;1.10;;;25.20;99.90;;;;;;5218975;28;20548;-61
2022/08/16 07:22:06;;;;;;;1.35;1.10;;;25.60;99.90;;;;;;5228986;28;20261;-61
2022/08/16 07:24:39;;;;;;;1.05;0.95;;;25.30;99.90;;;;;;5216982;28;20293;-62
2022/08/16 07:27:11;;;;;;;1.23;1.13;;;25.30;99.90;;;;;;5216757;28;20035;-61
2022/08/16 07:29:45;;;;;;;1.40;1.08;;;25.40;99.90;;;;;;5199319;28;20031;-60
2022/08/16 07:32:17;;;;;;;2.45;1.50;;;25.20;99.90;;;;;;5216825;28;20423;-60
2022/08/16 07:34:52;;;;;;;1.23;1.10;;;25.20;99.90;;;;;;5233451;28;20024;-60
2022/08/16 07:37:25;;;;;;;1.13;0.80;;;25.30;99.90;;;;;;5227778;28;20303;-60
2022/08/16 07:39:56;;;;;;;1.65;1.13;;;25.40;99.90;;;;;;5215252;28;20025;-61
2022/08/16 07:42:27;;;;;;;1.40;1.27;;;25.80;99.90;;;;;;5215514;28;20110;-60
2022/08/16 07:44:59;;;;;;;1.23;1.13;;;25.60;99.90;;;;;;5216078;28;20029;-60
2022/08/16 07:47:30;;;;;;;1.33;1.10;;;25.30;99.90;;;;;;5200770;28;20020;-61
2022/08/16 07:50:02;;;;;;;2.55;1.00;;;25.40;99.90;;;;;;5197659;28;20055;-60
2022/08/16 07:52:36;;;;;;;1.10;1.00;;;25.60;99.90;;;;;;5217315;28;20333;-61
2022/08/16 07:55:12;;;;;;;1.37;1.23;;;25.70;99.90;;;;;;5182652;28;20191;-61
2022/08/16 07:57:44;;;;;;;1.20;1.10;;;25.60;99.90;;;;;;5221918;28;20023;-61
2022/08/16 08:00:16;;;;;;;1.17;0.93;;;25.60;99.90;;;;;;5212064;28;20021;-61
2022/08/16 08:02:47;;;;;;;3.47;0.95;;;25.80;99.90;;;;;;5215327;28;20017;-62
2022/08/16 08:05:22;;;;;;;2.35;1.27;;;26.00;99.90;;;;;;5222819;28;20266;-61
2022/08/16 08:07:55;;;;;;;0.90;0.90;;;26.10;99.90;;;;;;5229370;28;20036;-61
2022/08/16 08:10:29;;;;;;;0.85;0.85;;;26.60;99.90;;;;;;5228882;28;20013;-61
2022/08/16 08:13:01;;;;;;;1.10;1.00;;;26.40;99.90;;;;;;5221025;28;20050;-60
2022/08/16 08:15:33;;;;;;;1.77;1.13;;;26.40;99.90;;;;;;5202585;28;20039;-61
2022/08/16 08:18:06;;;;;;;4.45;1.35;;;26.80;99.90;;;;;;5239302;28;20033;-62
2022/08/16 08:20:44;;;;;;;1.20;1.10;;;26.70;99.90;;;;;;5239441;28;20043;-62
2022/08/16 08:23:16;;;;;;;1.20;0.93;;;27.10;99.90;;;;;;5222629;28;20425;-60
2022/08/16 08:25:50;;;;;;;1.65;1.55;;;27.00;99.90;;;;;;5220458;28;20225;-61
2022/08/16 08:28:21;;;;;;;1.00;0.90;;;26.70;99.90;;;;;;5220352;28;20031;-61
2022/08/16 08:30:55;;;;;;;1.88;1.45;;;26.60;99.90;;;;;;5202501;28;20024;-60
2022/08/16 08:33:30;;;;;;;1.05;0.95;;;26.70;99.90;;;;;;5219730;28;20020;-60
2022/08/16 08:36:13;;;;;;;3.15;1.38;;;26.60;99.90;;;;;;5220319;28;20020;-61
2022/08/16 08:38:47;;;;;;;1.60;1.17;;;26.50;99.90;;;;;;5225041;28;20047;-61
2022/08/16 08:41:19;;;;;;;2.55;1.10;;;26.40;99.90;;;;;;5205955;28;20229;-61
2022/08/16 08:43:50;;;;;;;1.15;1.05;;;26.20;99.90;;;;;;5199095;28;20027;-61
2022/08/16 08:46:24;;;;;;;1.67;1.17;;;26.00;99.90;;;;;;5195165;28;20201;-61
2022/08/16 08:49:03;;;;;;;1.20;1.00;;;26.20;99.90;;;;;;5219027;28;20020;-61
2022/08/16 08:51:37;;;;;;;1.10;1.00;;;26.10;99.90;;;;;;5220114;28;20029;-61
2022/08/16 08:54:09;;;;;;;1.38;1.00;;;26.60;99.90;;;;;;5184668;28;20113;-60
2022/08/16 08:56:40;;;;;;;1.35;1.17;;;26.80;99.90;;;;;;5201957;28;20033;-60
2022/08/16 08:59:15;;;;;;;1.33;0.93;;;26.50;99.90;;;;;;5226180;28;20035;-59
2022/08/16 09:01:47;;;;;;;1.63;1.20;;;26.20;99.90;;;;;;5241754;28;20035;-59
2022/08/16 09:04:21;;;;;;;2.17;1.13;;;26.50;99.90;;;;;;5213771;28;20199;-59
2022/08/16 09:06:57;;;;;;;3.33;1.17;;;26.50;99.90;;;;;;5224060;28;20029;-60
2022/08/16 09:09:38;;;;;;;1.20;1.08;;;26.70;99.90;;;;;;5223453;28;20318;-60
2022/08/16 09:12:17;;;;;;;0.80;0.80;;;26.80;99.90;;;;;;5197715;28;20322;-61
2022/08/16 09:14:51;;;;;;;1.20;1.10;;;27.40;99.90;;;;;;5185514;28;20037;-61
2022/08/16 09:17:23;;;;;;;;;;;27.50;99.90;;;;;;5237703;28;20294;-60
2022/08/16 09:19:59;;;;;;;1.38;1.08;;;27.60;99.90;;;;;;5225002;28;19911;-60
2022/08/16 09:22:33;;;;;;;1.70;1.08;;;28.10;99.90;;;;;;5220138;28;20039;-61
2022/08/16 09:25:08;;;;;;;1.52;0.88;;;28.10;99.90;;;;;;5219838;28;20025;-61
2022/08/16 09:27:41;;;;;;;1.10;0.98;;;27.70;99.90;;;;;;5219714;28;20031;-61
2022/08/16 09:30:16;;;;;;;2.45;1.80;;;27.60;99.90;;;;;;5201312;28;20025;-61
2022/08/16 09:32:53;;;;;;;1.25;1.15;;;27.70;99.90;;;;;;5226254;28;20032;-61
2022/08/16 09:35:27;;;;;;;1.40;1.02;;;27.60;99.90;;;;;;5218731;28;20211;-61
2022/08/16 09:37:58;;;;;;;2.42;1.50;;;27.80;99.90;;;;;;5220725;28;20031;-61
2022/08/16 09:40:29;;;;;;;1.23;1.05;;;27.90;99.90;;;;;;5161941;28;20044;-62
2022/08/16 09:43:03;;;;;;;1.10;1.00;;;28.00;99.90;;;;;;5206308;28;20033;-61
2022/08/16 09:45:40;;;;;;;1.45;1.00;;;28.10;99.90;;;;;;5219009;28;20031;-62
2022/08/16 09:48:16;;;;;;;1.70;1.35;;;28.20;99.90;;;;;;5218625;28;20025;-61
2022/08/16 09:50:49;;;;;;;2.13;0.95;;;28.50;99.90;;;;;;5201754;28;20019;-61
2022/08/16 09:53:25;;;;;;;5.50;1.40;;;28.70;99.90;;;;;;5218186;28;20032;-62
2022/08/16 09:56:03;;;;;;;1.10;1.00;;;28.70;99.90;;;;;;5217441;28;20360;-60
2022/08/16 09:58:35;;;;;;;1.08;0.98;;;28.60;99.90;;;;;;5219326;28;20217;-61
2022/08/16 10:01:08;;;;;;;1.27;1.05;;;28.20;99.90;;;;;;5219268;28;20028;-63
2022/08/16 10:03:40;;;;;;;3.53;1.10;;;28.70;99.90;;;;;;5200807;28;20205;-63
2022/08/16 10:06:11;;;;;;;1.42;1.23;;;28.90;99.90;;;;;;5167180;28;20041;-62
2022/08/16 10:08:44;;;;;;;1.42;1.20;;;29.10;99.90;;;;;;5218810;28;20025;-61
2022/08/16 10:14:10;;;;;;;1.27;1.17;;;28.80;99.90;;;;;;5219003;28;20024;-63
2022/08/16 10:16:44;;;;;;;1.30;1.10;;;28.70;99.90;;;;;;5219056;28;20020;-62
2022/08/16 10:19:16;;;;;;;1.08;0.98;;;28.60;99.90;;;;;;5221411;28;20035;-62
2022/08/16 10:21:48;;;;;;;1.35;1.20;;;29.10;99.90;;;;;;5200438;28;20017;-62
2022/08/16 10:24:20;;;;;;;4.03;1.35;;;28.90;99.90;;;;;;5219212;28;20039;-62
2022/08/16 10:26:56;;;;;;;1.40;1.30;;;28.90;99.90;;;;;;5201751;28;20021;-61
2022/08/16 10:29:32;;;;;;;1.35;1.17;;;29.10;99.90;;;;;;5187293;28;20214;-61
2022/08/16 10:32:09;;;;;;;1.40;1.30;;;29.10;99.90;;;;;;5200370;28;20029;-62
2022/08/16 10:34:41;;;;;;;1.90;1.27;;;29.20;99.90;;;;;;5199216;28;20035;-62
2022/08/16 10:37:14;;;;;;;2.25;1.35;;;29.60;99.90;;;;;;5200158;28;20021;-62
2022/08/16 10:39:46;;;;;;;1.00;0.93;;;30.60;99.90;;;;;;5184326;28;20016;-62
2022/08/16 10:42:21;;;;;;;1.30;1.20;;;30.80;99.90;;;;;;5199939;28;20037;-61
2022/08/16 10:44:52;;;;;;;2.45;1.10;;;30.00;99.90;;;;;;5201185;28;20021;-62
2022/08/16 10:47:25;;;;;;;1.73;1.40;;;29.70;99.90;;;;;;5179742;28;20029;-61
2022/08/16 10:49:59;;;;;;;1.23;0.93;;;30.70;99.90;;;;;;5197063;28;20027;-63
2022/08/16 10:52:31;;;;;;;1.23;1.13;;;31.00;99.90;;;;;;5203227;28;20426;-62
2022/08/16 10:55:04;;;;;;;1.80;1.42;;;31.10;99.90;;;;;;5238426;28;20220;-62
2022/08/16 10:57:35;;;;;;;1.42;1.25;;;31.30;99.90;;;;;;5219542;28;20063;-62
2022/08/16 11:00:13;;;;;;;1.05;0.95;;;31.40;99.90;;;;;;5200360;28;20021;-62
2022/08/16 11:02:51;;;;;;;2.33;1.38;;;31.80;99.90;;;;;;5217615;28;20029;-62
2022/08/16 11:05:24;;;;;;;1.70;1.20;;;31.40;99.90;;;;;;5205737;28;20041;-61
2022/08/16 11:07:56;;;;;;;1.23;0.93;;;31.30;99.90;;;;;;5217828;28;20017;-62
2022/08/16 11:10:33;;;;;;;1.25;1.15;;;31.60;99.90;;;;;;5225389;28;20033;-61
2022/08/16 11:13:13;;;;;;;1.75;1.50;;;31.50;99.90;;;;;;5199287;28;20033;-62
2022/08/16 11:15:45;;;;;;;1.60;1.50;;;31.30;99.90;;;;;;5217243;28;20029;-63
2022/08/16 11:18:16;;;;;;;1.58;1.48;;;31.50;99.90;;;;;;5223162;28;20028;-61
2022/08/16 11:20:50;;;;;;;1.60;1.30;;;31.20;99.90;;;;;;5219338;28;20588;-61
2022/08/16 11:23:25;;;;;;;1.45;1.20;;;31.30;99.90;;;;;;5220142;28;20035;-62
2022/08/16 11:25:56;;;;;;;1.27;1.10;;;31.40;99.90;;;;;;5238632;28;20214;-63
2022/08/16 11:28:30;;;;;;;1.30;1.20;;;31.50;99.90;;;;;;5209294;28;20235;-62
2022/08/16 11:31:04;;;;;;;1.55;1.23;;;31.70;99.90;;;;;;5213893;28;20308;-61
2022/08/16 11:33:38;;;;;;;;;;;31.80;99.90;;;;;;5217026;28;20306;-61
2022/08/16 11:36:10;;;;;;;1.40;1.30;;;32.40;99.90;;;;;;5231851;28;19923;-62
2022/08/16 11:38:43;;;;;;;3.58;1.30;;;32.70;99.90;;;;;;5244113;28;20031;-60
2022/08/16 11:41:14;;;;;;;1.50;1.40;;;32.80;99.90;;;;;;5230867;28;20024;-62
2022/08/16 11:43:46;;;;;;;1.20;1.08;;;32.40;99.90;;;;;;5222218;28;20393;-62
2022/08/16 11:46:19;;;;;;;1.23;1.13;;;32.10;99.90;;;;;;5206671;28;20031;-63
2022/08/16 11:48:50;;;;;;;1.33;1.20;;;32.60;99.90;;;;;;5226534;28;20025;-62
2022/08/16 11:51:21;;;;;;;1.38;1.27;;;32.40;99.90;;;;;;5224671;28;20021;-61
2022/08/16 11:53:55;;;;;;;1.40;1.30;;;32.40;99.90;;;;;;5205950;28;20403;-62
2022/08/16 11:56:29;;;;;;;1.20;1.10;;;32.40;99.90;;;;;;5224051;28;20033;-62
2022/08/16 11:59:00;;;;;;;;;;;33.30;99.90;;;;;;5224524;28;20033;-61
2022/08/16 12:01:33;;;;;;;1.63;1.30;;;32.60;99.90;;;;;;5225784;28;19919;-63
2022/08/16 12:04:05;;;;;;;1.52;1.40;;;32.70;99.90;;;;;;5188998;28;20029;-62
2022/08/16 12:06:38;;;;;;;2.95;1.38;;;32.80;99.90;;;;;;5213142;28;20341;-63
2022/08/16 12:09:11;;;;;;;2.47;1.27;;;33.10;99.90;;;;;;5223507;28;20025;-60
2022/08/16 12:11:43;;;;;;;1.77;1.45;;;33.40;99.90;;;;;;5235471;28;20286;-63
2022/08/16 12:14:14;;;;;;;2.63;1.33;;;34.50;99.90;;;;;;5204676;28;20063;-62
2022/08/16 12:16:50;;;;;;;1.60;1.35;;;33.90;99.90;;;;;;5206176;28;20029;-61
2022/08/16 12:19:25;;;;;;;1.90;1.20;;;33.90;99.90;;;;;;5205080;28;20028;-62
2022/08/16 12:21:58;;;;;;;3.08;1.10;;;32.60;99.90;;;;;;5223950;28;20043;-62
2022/08/16 12:24:34;;;;;;;1.20;1.10;;;33.10;99.90;;;;;;5189813;28;20049;-62
2022/08/16 12:27:08;;;;;;;1.23;1.13;;;33.40;99.90;;;;;;5224698;28;20016;-63
2022/08/16 12:29:45;;;;;;;1.42;1.30;;;34.50;99.90;;;;;;5223274;28;20027;-62
2022/08/16 12:32:17;;;;;;;3.25;1.92;;;34.70;99.90;;;;;;5223484;28;20024;-63
2022/08/16 12:34:50;;;;;;;1.27;1.17;;;34.40;99.90;;;;;;5223467;28;20034;-62
2022/08/16 12:37:23;;;;;;;;;;;34.80;99.90;;;;;;5222641;28;20419;-61
2022/08/16 12:39:55;;;;;;;1.38;1.10;;;34.80;99.90;;;;;;5235204;28;19919;-61
2022/08/16 12:42:28;;;;;;;1.48;1.10;;;35.50;99.90;;;;;;5240721;28;20017;-61
2022/08/16 12:45:04;;;;;;;1.38;1.27;;;35.50;99.90;;;;;;5189099;28;20338;-62
2022/08/16 12:50:25;;;;;;;2.08;1.35;;;37.20;99.90;;;;;;5219441;28;20322;-63
2022/08/16 12:52:59;;;;;;;1.50;1.40;;;36.60;99.90;;;;;;5220631;28;20031;-62
2022/08/16 12:55:30;;;;;;;;;;;36.20;99.90;;;;;;5220234;28;20025;-63
2022/08/16 12:58:01;;;;;;;1.48;1.38;;;35.80;99.90;;;;;;5219897;28;19907;-64
2022/08/16 13:00:35;;;;;;;1.40;1.30;;;36.90;99.90;;;;;;5219222;28;20033;-62
2022/08/16 13:03:11;;;;;;;1.27;1.02;;;36.10;99.90;;;;;;5220070;28;20020;-63
2022/08/16 13:05:42;;;;;;;1.20;1.10;;;35.40;99.90;;;;;;5220460;28;20110;-62
2022/08/16 13:08:18;;;;;;;1.65;1.55;;;35.20;99.90;;;;;;5240004;28;20020;-61
2022/08/16 13:10:51;;;;;;;1.63;1.48;;;35.90;99.90;;;;;;5206854;28;20139;-62
2022/08/16 13:13:23;;;;;;;;;;;35.50;99.90;;;;;;5202334;28;20233;-62
2022/08/16 13:16:00;;;;;;;1.50;1.40;;;35.40;99.90;;;;;;5219359;28;20174;-61
2022/08/16 13:18:34;;;;;;;2.22;1.30;;;35.70;99.90;;;;;;5219614;28;20328;-61
2022/08/16 13:21:07;;;;;;;4.60;1.42;;;36.10;99.90;;;;;;5218989;28;20029;-62
2022/08/16 13:23:38;;;;;;;2.03;1.20;;;34.90;99.90;;;;;;5218224;28;20306;-63
2022/08/16 13:26:13;;;;;;;1.27;1.17;;;34.90;99.90;;;;;;5220967;28;20050;-62
2022/08/16 13:28:44;;;;;;;1.30;1.20;;;34.80;99.90;;;;;;5219027;28;20021;-62